DOF/220927 1423Z

 METAR AND TAF INFORMATION
METAR FOR GCTS
ADDS - METARS form results

(1423 UTC 27 September 2022)
Data provider http://aviationweather.gov/metar/data/
 
METAR text: GCTS 271400Z 07024KT 9999 FEW025 26/18 Q1019 NOSIG
Conditions at: GCTS (TENERIFE SUR/REI, ES) observed 1400 UTC 27 September 2022
Temperature: 26.0°C (79°F)
Dewpoint: 18.0°C (64°F) [RH = 61%]
Pressure (altimeter): 30.09 inches Hg (1019.0 mb)
Winds: from the ENE (70 degrees) at 28 MPH (24 knots; 12.3 m/s)
Visibility: 6 or more miles (10+ km)
Ceiling: at least 12,000 feet AGL
Clouds: few clouds at 2500 feet AGL
Weather: no significant weather observed at this time

METAR text: GCTS 271330Z 06024KT 9999 FEW025 26/18 Q1019 NOSIG
Conditions at: GCTS (TENERIFE SUR/REI, ES) observed 1330 UTC 27 September 2022
Temperature: 26.0°C (79°F)
Dewpoint: 18.0°C (64°F) [RH = 61%]
Pressure (altimeter): 30.09 inches Hg (1019.0 mb)
Winds: from the ENE (60 degrees) at 28 MPH (24 knots; 12.3 m/s)
Visibility: 6 or more miles (10+ km)
Ceiling: at least 12,000 feet AGL
Clouds: few clouds at 2500 feet AGL
Weather: no significant weather observed at this time

Forecast for: GCTS (TENERIFE SUR/REI, ES)
Text: TAF GCTS 270800Z 2709/2809 07024KT 9999 FEW020 TX27/2714Z TN22/2806Z
Forecast period: 0900 UTC 27 September 2022 to 0900 UTC 28 September 2022
Forecast type: FROM: standard forecast or significant change
Winds: from the ENE (70 degrees) at 28 MPH (24 knots; 12.3 m/s)
Visibility: 6 or more miles (10+ km)
Ceiling: at least 12,000 feet AGL
Clouds: few clouds at 2000 feet AGL
Weather: no significant weather forecast for this period
Text: PROB40
Forecast period: 1100 to 1600 UTC 27 September 2022
Forecast type: TEMPORARY: The following changes expected for less than half the time period
Winds: from the ENE (70 degrees) at 28 MPH (24 knots; 12.3 m/s)
gusting to 39 MPH (34 knots; 17.5 m/s)
Visibility: missing
Ceiling: unknown
Clouds: missing
Weather: no significant weather forecast for this period

 AIRPORT MAP

 RUNWAY INFORMATION
Runway 08 Runway length 10499 ft Runway width 148 ft
Runway elevation 187 ft Runway displaced threshold 0 ft Runway heading 69
Runway 26 Runway length 10499 ft Runway width 148 ft
Runway elevation 209 ft Runway displaced threshold 0 ft Runway heading 249

 AIRPORT FREQUENCIES
Type APP Name APP Frequency 120.3 MHZ
Type ATIS Name ATIS Frequency 118.675 MHZ
Type GND Name GND Frequency 121.9 MHZ
Type TWR Name TWR Frequency 119 MHZ

 AIRPORT NEAR NAVIGATION AIDS
Type NDB Name Tenerife Sur Frequency 317 KHZ
Type VOR-DME Name Tenerife Sur Frequency 116400 KHZ







No Copyright © 2021 Mickey Virtual Airlines - You can copy whatever you want, but only one can be the original.

Powered by Virtual Airlines Manager